<?xml version="1.0" encoding="UTF-8" standalone="no" ?><gpx xmlns="http://www.topografix.com/GPX/1/1" xmlns:gpxx="http://www.garmin.com/xmlschemas/GpxExtensions/v3" xmlns:wptx1="http://www.garmin.com/xmlschemas/WaypointExtension/v1" xmlns:gpxtpx="http://www.garmin.com/xmlschemas/TrackPointExtension/v1" creator="GuideVTT.com" version="1.1" xmlns:xsi="http://www.w3.org/2001/XMLSchema-instance" xsi:schemaLocation="http://www.topografix.com/GPX/1/1 http://www.topografix.com/GPX/1/1/gpx.xsd http://www.garmin.com/xmlschemas/GpxExtensions/v3 http://www8.garmin.com/xmlschemas/GpxExtensionsv3.xsd http://www.garmin.com/xmlschemas/WaypointExtension/v1 http://www8.garmin.com/xmlschemas/WaypointExtensionv1.xsd http://www.garmin.com/xmlschemas/TrackPointExtension/v1 http://www.garmin.com/xmlschemas/TrackPointExtensionv1.xsd">
<metadata><link href="http://www.garmin.com"><text>Garmin International</text></link><time>2013-06-22T15:13:50Z</time></metadata>
<trk><name>rp_2014_10.gpx</name><extensions><gpxx:TrackExtension><gpxx:DisplayColor>Cyan</gpxx:DisplayColor></gpxx:TrackExtension></extensions><trkseg>
<trkpt lat="46.5041858330" lon="6.7317200080"><ele></ele><time>2014-7-8T11:48:53Z</time></trkpt>
<trkpt lat="46.5041835699" lon="6.7317012325"><ele></ele><time>2014-7-8T11:48:56Z</time></trkpt>
<trkpt lat="46.5041807201" lon="6.7316942755"><ele></ele><time>2014-7-8T11:48:59Z</time></trkpt>
<trkpt lat="46.5042359568" lon="6.7317636777"><ele></ele><time>2014-7-8T11:49:2Z</time></trkpt>
<trkpt lat="46.5043833945" lon="6.7320169788"><ele></ele><time>2014-7-8T11:49:5Z</time></trkpt>
<trkpt lat="46.5045245457" lon="6.7323074955"><ele></ele><time>2014-7-8T11:49:8Z</time></trkpt>
<trkpt lat="46.5047609992" lon="6.7327169515"><ele></ele><time>2014-7-8T11:49:11Z</time></trkpt>
<trkpt lat="46.5049277991" lon="6.7329932190"><ele></ele><time>2014-7-8T11:49:14Z</time></trkpt>
<trkpt lat="46.5049982071" lon="6.7331145890"><ele></ele><time>2014-7-8T11:49:17Z</time></trkpt>
<trkpt lat="46.5051760711" lon="6.7334353644"><ele></ele><time>2014-7-8T11:49:20Z</time></trkpt>
<trkpt lat="46.5052254405" lon="6.7335196026"><ele></ele><time>2014-7-8T11:49:23Z</time></trkpt>
<trkpt lat="46.5053418651" lon="6.7334934510"><ele></ele><time>2014-7-8T11:49:26Z</time></trkpt>
<trkpt lat="46.5055000316" lon="6.7331234738"><ele></ele><time>2014-7-8T11:49:29Z</time></trkpt>
<trkpt lat="46.5057192184" lon="6.7328382377"><ele></ele><time>2014-7-8T11:49:32Z</time></trkpt>
<trkpt lat="46.5058852639" lon="6.7326094117"><ele></ele><time>2014-7-8T11:49:35Z</time></trkpt>
<trkpt lat="46.5061031096" lon="6.7323760595"><ele></ele><time>2014-7-8T11:49:38Z</time></trkpt>
<trkpt lat="46.5061148442" lon="6.7323661689"><ele></ele><time>2014-7-8T11:49:41Z</time></trkpt>
<trkpt lat="46.5061259922" lon="6.7324763071"><ele></ele><time>2014-7-8T11:49:44Z</time></trkpt>
<trkpt lat="46.5059077274" lon="6.7331466917"><ele></ele><time>2014-7-8T11:49:47Z</time></trkpt>
<trkpt lat="46.5058838390" lon="6.7337988876"><ele></ele><time>2014-7-8T11:49:50Z</time></trkpt>
<trkpt lat="46.5058872756" lon="6.7340742331"><ele></ele><time>2014-7-8T11:49:53Z</time></trkpt>
<trkpt lat="46.5058052167" lon="6.7343466450"><ele></ele><time>2014-7-8T11:49:56Z</time></trkpt>
<trkpt lat="46.5057734493" lon="6.7344479822"><ele></ele><time>2014-7-8T11:49:59Z</time></trkpt>
<trkpt lat="46.5057360660" lon="6.7346090823"><ele></ele><time>2014-7-8T11:50:2Z</time></trkpt>
<trkpt lat="46.5057010297" lon="6.7347012833"><ele></ele><time>2014-7-8T11:50:5Z</time></trkpt>
<trkpt lat="46.5055550169" lon="6.7350752838"><ele></ele><time>2014-7-8T11:50:8Z</time></trkpt>
<trkpt lat="46.5054563619" lon="6.7353934608"><ele></ele><time>2014-7-8T11:50:11Z</time></trkpt>
<trkpt lat="46.5054264385" lon="6.7357017472"><ele></ele><time>2014-7-8T11:50:14Z</time></trkpt>
<trkpt lat="46.5054778196" lon="6.7362695374"><ele></ele><time>2014-7-8T11:50:17Z</time></trkpt>
<trkpt lat="46.5054990258" lon="6.7370738648"><ele></ele><time>2014-7-8T11:50:20Z</time></trkpt>
<trkpt lat="46.5055008698" lon="6.7371282633"><ele></ele><time>2014-7-8T11:50:23Z</time></trkpt>
<trkpt lat="46.5055955853" lon="6.7378511187"><ele></ele><time>2014-7-8T11:50:26Z</time></trkpt>
<trkpt lat="46.5055567771" lon="6.7380896676"><ele></ele><time>2014-7-8T11:50:29Z</time></trkpt>
<trkpt lat="46.5055112634" lon="6.7383806035"><ele></ele><time>2014-7-8T11:50:32Z</time></trkpt>
<trkpt lat="46.5054622293" lon="6.7384621594"><ele></ele><time>2014-7-8T11:50:35Z</time></trkpt>
<trkpt lat="46.5054028854" lon="6.7386864591"><ele></ele><time>2014-7-8T11:50:38Z</time></trkpt>
<trkpt lat="46.5053195693" lon="6.7389305402"><ele></ele><time>2014-7-8T11:50:41Z</time></trkpt>
<trkpt lat="46.5050899889" lon="6.7393000145"><ele></ele><time>2014-7-8T11:50:44Z</time></trkpt>
<trkpt lat="46.5049000550" lon="6.7394651379"><ele></ele><time>2014-7-8T11:50:47Z</time></trkpt>
<trkpt lat="46.5048058424" lon="6.7395739350"><ele></ele><time>2014-7-8T11:50:50Z</time></trkpt>
<trkpt lat="46.5046984702" lon="6.7397179361"><ele></ele><time>2014-7-8T11:50:53Z</time></trkpt>
<trkpt lat="46.5045916010" lon="6.7398539744"><ele></ele><time>2014-7-8T11:50:56Z</time></trkpt>
<trkpt lat="46.5044794511" lon="6.7399817985"><ele></ele><time>2014-7-8T11:50:59Z</time></trkpt>
<trkpt lat="46.5043180156" lon="6.7400919367"><ele></ele><time>2014-7-8T11:51:2Z</time></trkpt>
<trkpt lat="46.5042299218" lon="6.7401174176"><ele></ele><time>2014-7-8T11:51:5Z</time></trkpt>
<trkpt lat="46.5042059496" lon="6.7402336746"><ele></ele><time>2014-7-8T11:51:8Z</time></trkpt>
<trkpt lat="46.5041834861" lon="6.7403392866"><ele></ele><time>2014-7-8T11:51:11Z</time></trkpt>
<trkpt lat="46.5041763615" lon="6.7404323258"><ele></ele><time>2014-7-8T11:51:14Z</time></trkpt>
<trkpt lat="46.5041551553" lon="6.7409559432"><ele></ele><time>2014-7-8T11:51:17Z</time></trkpt>
<trkpt lat="46.5042727534" lon="6.7411789857"><ele></ele><time>2014-7-8T11:51:20Z</time></trkpt>
<trkpt lat="46.5046096221" lon="6.7412156984"><ele></ele><time>2014-7-8T11:51:23Z</time></trkpt>
<trkpt lat="46.5050070919" lon="6.7413014453"><ele></ele><time>2014-7-8T11:51:26Z</time></trkpt>
<trkpt lat="46.5052114427" lon="6.7413948197"><ele></ele><time>2014-7-8T11:51:29Z</time></trkpt>
<trkpt lat="46.5054473933" lon="6.7413281836"><ele></ele><time>2014-7-8T11:51:32Z</time></trkpt>
<trkpt lat="46.5056855232" lon="6.7413013615"><ele></ele><time>2014-7-8T11:51:35Z</time></trkpt>
<trkpt lat="46.5059005190" lon="6.7412927281"><ele></ele><time>2014-7-8T11:51:38Z</time></trkpt>
<trkpt lat="46.5059951507" lon="6.7412908841"><ele></ele><time>2014-7-8T11:51:41Z</time></trkpt>
<trkpt lat="46.5061073843" lon="6.7412744556"><ele></ele><time>2014-7-8T11:51:44Z</time></trkpt>
<trkpt lat="46.5061785467" lon="6.7412787303"><ele></ele><time>2014-7-8T11:51:47Z</time></trkpt>
<trkpt lat="46.5063487832" lon="6.7412411794"><ele></ele><time>2014-7-8T11:51:50Z</time></trkpt>
<trkpt lat="46.5063674748" lon="6.7412524950"><ele></ele><time>2014-7-8T11:51:53Z</time></trkpt>
<trkpt lat="46.5063965600" lon="6.7412514053"><ele></ele><time>2014-7-8T11:51:56Z</time></trkpt>
<trkpt lat="46.5064236335" lon="6.7412545066"><ele></ele><time>2014-7-8T11:51:59Z</time></trkpt>
<trkpt lat="46.5065809619" lon="6.7412278522"><ele></ele><time>2014-7-8T11:52:2Z</time></trkpt>
<trkpt lat="46.5066569857" lon="6.7412016168"><ele></ele><time>2014-7-8T11:52:5Z</time></trkpt>
<trkpt lat="46.5068049263" lon="6.7411546782"><ele></ele><time>2014-7-8T11:52:8Z</time></trkpt>
<trkpt lat="46.5068230312" lon="6.7411491461"><ele></ele><time>2014-7-8T11:52:11Z</time></trkpt>
<trkpt lat="46.5068431478" lon="6.7411694303"><ele></ele><time>2014-7-8T11:52:14Z</time></trkpt>
<trkpt lat="46.5068631805" lon="6.7411583662"><ele></ele><time>2014-7-8T11:52:17Z</time></trkpt>
<trkpt lat="46.5068826266" lon="6.7411675025"><ele></ele><time>2014-7-8T11:52:20Z</time></trkpt>
<trkpt lat="46.5070019849" lon="6.7411447875"><ele></ele><time>2014-7-8T11:52:23Z</time></trkpt>
<trkpt lat="46.5070258733" lon="6.7411591206"><ele></ele><time>2014-7-8T11:52:26Z</time></trkpt>
<trkpt lat="46.5070755780" lon="6.7411480565"><ele></ele><time>2014-7-8T11:52:29Z</time></trkpt>
<trkpt lat="46.5071893204" lon="6.7411473859"><ele></ele><time>2014-7-8T11:52:32Z</time></trkpt>
<trkpt lat="46.5072833654" lon="6.7412298638"><ele></ele><time>2014-7-8T11:52:35Z</time></trkpt>
<trkpt lat="46.5074075013" lon="6.7413130123"><ele></ele><time>2014-7-8T11:52:38Z</time></trkpt>
<trkpt lat="46.5074686892" lon="6.7411955819"><ele></ele><time>2014-7-8T11:52:41Z</time></trkpt>
<trkpt lat="46.5074976068" lon="6.7411420215"><ele></ele><time>2014-7-8T11:52:44Z</time></trkpt>
<trkpt lat="46.5075219981" lon="6.7408696935"><ele></ele><time>2014-7-8T11:52:47Z</time></trkpt>
<trkpt lat="46.5075190645" lon="6.7406976130"><ele></ele><time>2014-7-8T11:52:50Z</time></trkpt>
<trkpt lat="46.5075525083" lon="6.7404985428"><ele></ele><time>2014-7-8T11:52:53Z</time></trkpt>
<trkpt lat="46.5076604672" lon="6.7404019833"><ele></ele><time>2014-7-8T11:52:56Z</time></trkpt>
<trkpt lat="46.5076788235" lon="6.7404170707"><ele></ele><time>2014-7-8T11:52:59Z</time></trkpt>
<trkpt lat="46.5077809989" lon="6.7404342536"><ele></ele><time>2014-7-8T11:53:2Z</time></trkpt>
<trkpt lat="46.5078019537" lon="6.7404375225"><ele></ele><time>2014-7-8T11:53:5Z</time></trkpt>
<trkpt lat="46.5078393370" lon="6.7404692061"><ele></ele><time>2014-7-8T11:53:8Z</time></trkpt>
<trkpt lat="46.5080142673" lon="6.7405317351"><ele></ele><time>2014-7-8T11:53:11Z</time></trkpt>
<trkpt lat="46.5082303528" lon="6.7405605689"><ele></ele><time>2014-7-8T11:53:14Z</time></trkpt>
<trkpt lat="46.5083052032" lon="6.7405813560"><ele></ele><time>2014-7-8T11:53:17Z</time></trkpt>
<trkpt lat="46.5083468612" lon="6.7406386882"><ele></ele><time>2014-7-8T11:53:20Z</time></trkpt>
<trkpt lat="46.5084516350" lon="6.7407408636"><ele></ele><time>2014-7-8T11:53:23Z</time></trkpt>
<trkpt lat="46.5085474402" lon="6.7408312205"><ele></ele><time>2014-7-8T11:53:26Z</time></trkpt>
<trkpt lat="46.5086290799" lon="6.7408895586"><ele></ele><time>2014-7-8T11:53:29Z</time></trkpt>
<trkpt lat="46.5087374579" lon="6.7409404367"><ele></ele><time>2014-7-8T11:53:32Z</time></trkpt>
<trkpt lat="46.5088612586" lon="6.7409661692"><ele></ele><time>2014-7-8T11:53:35Z</time></trkpt>
<trkpt lat="46.5089619253" lon="6.7409353238"><ele></ele><time>2014-7-8T11:53:38Z</time></trkpt>
<trkpt lat="46.5091003943" lon="6.7409131955"><ele></ele><time>2014-7-8T11:53:41Z</time></trkpt>
<trkpt lat="46.5091718920" lon="6.7408893909"><ele></ele><time>2014-7-8T11:53:44Z</time></trkpt>
<trkpt lat="46.5091995522" lon="6.7408898100"><ele></ele><time>2014-7-8T11:53:47Z</time></trkpt>
<trkpt lat="46.5093422960" lon="6.7408670112"><ele></ele><time>2014-7-8T11:53:50Z</time></trkpt>
<trkpt lat="46.5094312280" lon="6.7408626527"><ele></ele><time>2014-7-8T11:53:53Z</time></trkpt>
<trkpt lat="46.5094819386" lon="6.7408791650"><ele></ele><time>2014-7-8T11:53:56Z</time></trkpt>
<trkpt lat="46.5095316432" lon="6.7408677656"><ele></ele><time>2014-7-8T11:53:59Z</time></trkpt>
<trkpt lat="46.5096830204" lon="6.7408929113"><ele></ele><time>2014-7-8T11:54:2Z</time></trkpt>
<trkpt lat="46.5098271891" lon="6.7408837751"><ele></ele><time>2014-7-8T11:54:5Z</time></trkpt>
<trkpt lat="46.5100317076" lon="6.7408712022"><ele></ele><time>2014-7-8T11:54:8Z</time></trkpt>
<trkpt lat="46.5103767905" lon="6.7409230862"><ele></ele><time>2014-7-8T11:54:11Z</time></trkpt>
<trkpt lat="46.5105650481" lon="6.7409143690"><ele></ele><time>2014-7-8T11:54:14Z</time></trkpt>
<trkpt lat="46.5107340273" lon="6.7411307059"><ele></ele><time>2014-7-8T11:54:17Z</time></trkpt>
<trkpt lat="46.5108505357" lon="6.7413208075"><ele></ele><time>2014-7-8T11:54:20Z</time></trkpt>
<trkpt lat="46.5109054372" lon="6.7415517289"><ele></ele><time>2014-7-8T11:54:23Z</time></trkpt>
<trkpt lat="46.5108894277" lon="6.7416489590"><ele></ele><time>2014-7-8T11:54:26Z</time></trkpt>
<trkpt lat="46.5108978096" lon="6.7417440098"><ele></ele><time>2014-7-8T11:54:29Z</time></trkpt>
<trkpt lat="46.5110353567" lon="6.7420300003"><ele></ele><time>2014-7-8T11:54:32Z</time></trkpt>
<trkpt lat="46.5111190919" lon="6.7421028391"><ele></ele><time>2014-7-8T11:54:35Z</time></trkpt>
<trkpt lat="46.5111383703" lon="6.7421419825"><ele></ele><time>2014-7-8T11:54:38Z</time></trkpt>
<trkpt lat="46.5111444052" lon="6.7422254663"><ele></ele><time>2014-7-8T11:54:41Z</time></trkpt>
<trkpt lat="46.5111776814" lon="6.7423002329"><ele></ele><time>2014-7-8T11:54:44Z</time></trkpt>
<trkpt lat="46.5112817846" lon="6.7425570544"><ele></ele><time>2014-7-8T11:54:47Z</time></trkpt>
<trkpt lat="46.5113495104" lon="6.7426283006"><ele></ele><time>2014-7-8T11:54:50Z</time></trkpt>
<trkpt lat="46.5114566311" lon="6.7426424660"><ele></ele><time>2014-7-8T11:54:53Z</time></trkpt>
<trkpt lat="46.5115035698" lon="6.7426142190"><ele></ele><time>2014-7-8T11:54:56Z</time></trkpt>
<trkpt lat="46.5115247760" lon="6.7425951082"><ele></ele><time>2014-7-8T11:54:59Z</time></trkpt>
<trkpt lat="46.5115696192" lon="6.7426289711"><ele></ele><time>2014-7-8T11:55:2Z</time></trkpt>
<trkpt lat="46.5116950963" lon="6.7426711321"><ele></ele><time>2014-7-8T11:55:5Z</time></trkpt>
<trkpt lat="46.5117855370" lon="6.7427546158"><ele></ele><time>2014-7-8T11:55:8Z</time></trkpt>
<trkpt lat="46.5118698590" lon="6.7429184821"><ele></ele><time>2014-7-8T11:55:11Z</time></trkpt>
<trkpt lat="46.5119316336" lon="6.7429510877"><ele></ele><time>2014-7-8T11:55:14Z</time></trkpt>
<trkpt lat="46.5120645706" lon="6.7430727091"><ele></ele><time>2014-7-8T11:55:17Z</time></trkpt>
<trkpt lat="46.5121087432" lon="6.7431459669"><ele></ele><time>2014-7-8T11:55:20Z</time></trkpt>
<trkpt lat="46.5121890418" lon="6.7431966774"><ele></ele><time>2014-7-8T11:55:23Z</time></trkpt>
<trkpt lat="46.5123913810" lon="6.7432913929"><ele></ele><time>2014-7-8T11:55:26Z</time></trkpt>
<trkpt lat="46.5125546604" lon="6.7433971725"><ele></ele><time>2014-7-8T11:55:29Z</time></trkpt>
<trkpt lat="46.5125872660" lon="6.7434063088"><ele></ele><time>2014-7-8T11:55:32Z</time></trkpt>
<trkpt lat="46.5126916207" lon="6.7431867030"><ele></ele><time>2014-7-8T11:55:35Z</time></trkpt>
<trkpt lat="46.5127537306" lon="6.7430258542"><ele></ele><time>2014-7-8T11:55:38Z</time></trkpt>
<trkpt lat="46.5128105599" lon="6.7428075057"><ele></ele><time>2014-7-8T11:55:41Z</time></trkpt>
<trkpt lat="46.5129667986" lon="6.7424614169"><ele></ele><time>2014-7-8T11:55:44Z</time></trkpt>
<trkpt lat="46.5129809640" lon="6.7424426414"><ele></ele><time>2014-7-8T11:55:47Z</time></trkpt>
<trkpt lat="46.5131133143" lon="6.7422530428"><ele></ele><time>2014-7-8T11:55:50Z</time></trkpt>
<trkpt lat="46.5131406393" lon="6.7422443256"><ele></ele><time>2014-7-8T11:55:53Z</time></trkpt>
<trkpt lat="46.5133200120" lon="6.7424759176"><ele></ele><time>2014-7-8T11:55:56Z</time></trkpt>
<trkpt lat="46.5134711377" lon="6.7427308112"><ele></ele><time>2014-7-8T11:55:59Z</time></trkpt>
<trkpt lat="46.5135872271" lon="6.7429457232"><ele></ele><time>2014-7-8T11:56:2Z</time></trkpt>
<trkpt lat="46.5137269534" lon="6.7433333863"><ele></ele><time>2014-7-8T11:56:5Z</time></trkpt>
<trkpt lat="46.5138793364" lon="6.7438217159"><ele></ele><time>2014-7-8T11:56:8Z</time></trkpt>
<trkpt lat="46.5139660053" lon="6.7441576626"><ele></ele><time>2014-7-8T11:56:11Z</time></trkpt>
<trkpt lat="46.5141153708" lon="6.7447015643"><ele></ele><time>2014-7-8T11:56:14Z</time></trkpt>
<trkpt lat="46.5142557677" lon="6.7451142054"><ele></ele><time>2014-7-8T11:56:17Z</time></trkpt>
<trkpt lat="46.5144231543" lon="6.7456846777"><ele></ele><time>2014-7-8T11:56:20Z</time></trkpt>
<trkpt lat="46.5146065503" lon="6.7462393921"><ele></ele><time>2014-7-8T11:56:23Z</time></trkpt>
<trkpt lat="46.5147357993" lon="6.7466887459"><ele></ele><time>2014-7-8T11:56:26Z</time></trkpt>
<trkpt lat="46.5147715900" lon="6.7468306515"><ele></ele><time>2014-7-8T11:56:29Z</time></trkpt>
<trkpt lat="46.5148882661" lon="6.7467489280"><ele></ele><time>2014-7-8T11:56:32Z</time></trkpt>
<trkpt lat="46.5149253979" lon="6.7465871572"><ele></ele><time>2014-7-8T11:56:35Z</time></trkpt>
<trkpt lat="46.5149497893" lon="6.7462942097"><ele></ele><time>2014-7-8T11:56:38Z</time></trkpt>
<trkpt lat="46.5149712469" lon="6.7460026033"><ele></ele><time>2014-7-8T11:56:41Z</time></trkpt>
<trkpt lat="46.5150202811" lon="6.7459170241"><ele></ele><time>2014-7-8T11:56:44Z</time></trkpt>
<trkpt lat="46.5150493663" lon="6.7457189597"><ele></ele><time>2014-7-8T11:56:47Z</time></trkpt>
<trkpt lat="46.5150655434" lon="6.7456970830"><ele></ele><time>2014-7-8T11:56:50Z</time></trkpt>
<trkpt lat="46.5151367057" lon="6.7457946483"><ele></ele><time>2014-7-8T11:56:53Z</time></trkpt>
<trkpt lat="46.5151439980" lon="6.7458715942"><ele></ele><time>2014-7-8T11:56:56Z</time></trkpt>
<trkpt lat="46.5152155794" lon="6.7462417390"><ele></ele><time>2014-7-8T11:56:59Z</time></trkpt>
<trkpt lat="46.5153119713" lon="6.7466071062"><ele></ele><time>2014-7-8T11:57:2Z</time></trkpt>
<trkpt lat="46.5154371969" lon="6.7472770717"><ele></ele><time>2014-7-8T11:57:5Z</time></trkpt>
<trkpt lat="46.5153761767" lon="6.7477477156"><ele></ele><time>2014-7-8T11:57:8Z</time></trkpt>
<trkpt lat="46.5150475223" lon="6.7481888551"><ele></ele><time>2014-7-8T11:57:11Z</time></trkpt>
<trkpt lat="46.5147068817" lon="6.7483826447"><ele></ele><time>2014-7-8T11:57:14Z</time></trkpt>
<trkpt lat="46.5139759798" lon="6.7483861651"><ele></ele><time>2014-7-8T11:57:17Z</time></trkpt>
<trkpt lat="46.5136647597" lon="6.7482695729"><ele></ele><time>2014-7-8T11:57:20Z</time></trkpt>
<trkpt lat="46.5134736523" lon="6.7482056189"><ele></ele><time>2014-7-8T11:57:23Z</time></trkpt>
<trkpt lat="46.5133282263" lon="6.7481635418"><ele></ele><time>2014-7-8T11:57:26Z</time></trkpt>
<trkpt lat="46.5132378694" lon="6.7481533159"><ele></ele><time>2014-7-8T11:57:29Z</time></trkpt>
<trkpt lat="46.5130049363" lon="6.7482468579"><ele></ele><time>2014-7-8T11:57:32Z</time></trkpt>
<trkpt lat="46.5128716640" lon="6.7483573314"><ele></ele><time>2014-7-8T11:57:35Z</time></trkpt>
<trkpt lat="46.5127508808" lon="6.7484403122"><ele></ele><time>2014-7-8T11:57:38Z</time></trkpt>
<trkpt lat="46.5122828353" lon="6.7485294957"><ele></ele><time>2014-7-8T11:57:41Z</time></trkpt>
<trkpt lat="46.5117762331" lon="6.7485774402"><ele></ele><time>2014-7-8T11:57:44Z</time></trkpt>
<trkpt lat="46.5115422942" lon="6.7484366242"><ele></ele><time>2014-7-8T11:57:47Z</time></trkpt>
<trkpt lat="46.5115080960" lon="6.7484230455"><ele></ele><time>2014-7-8T11:57:50Z</time></trkpt>
<trkpt lat="46.5112249553" lon="6.7482994962"><ele></ele><time>2014-7-8T11:57:53Z</time></trkpt>
<trkpt lat="46.5108498652" lon="6.7482904438"><ele></ele><time>2014-7-8T11:57:56Z</time></trkpt>
<trkpt lat="46.5105895232" lon="6.7481622845"><ele></ele><time>2014-7-8T11:57:59Z</time></trkpt>
<trkpt lat="46.5102645569" lon="6.7480060458"><ele></ele><time>2014-7-8T11:58:2Z</time></trkpt>
<trkpt lat="46.5099890437" lon="6.7480215523"><ele></ele><time>2014-7-8T11:58:5Z</time></trkpt>
<trkpt lat="46.5095938370" lon="6.7480820697"><ele></ele><time>2014-7-8T11:58:8Z</time></trkpt>
<trkpt lat="46.5091285575" lon="6.7478973325"><ele></ele><time>2014-7-8T11:58:11Z</time></trkpt>
<trkpt lat="46.5085286647" lon="6.7478536628"><ele></ele><time>2014-7-8T11:58:14Z</time></trkpt>
<trkpt lat="46.5078541730" lon="6.7480560858"><ele></ele><time>2014-7-8T11:58:17Z</time></trkpt>
<trkpt lat="46.5075442102" lon="6.7480789684"><ele></ele><time>2014-7-8T11:58:20Z</time></trkpt>
<trkpt lat="46.5074430406" lon="6.7484563217"><ele></ele><time>2014-7-8T11:58:23Z</time></trkpt>
<trkpt lat="46.5074629895" lon="6.7485079542"><ele></ele><time>2014-7-8T11:58:26Z</time></trkpt>
<trkpt lat="46.5077216551" lon="6.7493726313"><ele></ele><time>2014-7-8T11:58:29Z</time></trkpt>
<trkpt lat="46.5078238305" lon="6.7498623021"><ele></ele><time>2014-7-8T11:58:32Z</time></trkpt>
<trkpt lat="46.5078869462" lon="6.7503229715"><ele></ele><time>2014-7-8T11:58:35Z</time></trkpt>
<trkpt lat="46.5076558571" lon="6.7501820717"><ele></ele><time>2014-7-8T11:58:38Z</time></trkpt>
<trkpt lat="46.5073290467" lon="6.7500269227"><ele></ele><time>2014-7-8T11:58:41Z</time></trkpt>
<trkpt lat="46.5070680343" lon="6.7498011980"><ele></ele><time>2014-7-8T11:58:44Z</time></trkpt>
<trkpt lat="46.5067853127" lon="6.7494228389"><ele></ele><time>2014-7-8T11:58:47Z</time></trkpt>
<trkpt lat="46.5064411517" lon="6.7490571365"><ele></ele><time>2014-7-8T11:58:50Z</time></trkpt>
<trkpt lat="46.5063015092" lon="6.7490767501"><ele></ele><time>2014-7-8T11:58:53Z</time></trkpt>
<trkpt lat="46.5061605256" lon="6.7493822705"><ele></ele><time>2014-7-8T11:58:56Z</time></trkpt>
<trkpt lat="46.5060979966" lon="6.7501810659"><ele></ele><time>2014-7-8T11:58:59Z</time></trkpt>
<trkpt lat="46.5058762953" lon="6.7505492829"><ele></ele><time>2014-7-8T11:59:2Z</time></trkpt>
<trkpt lat="46.5056311246" lon="6.7506103031"><ele></ele><time>2014-7-8T11:59:5Z</time></trkpt>
<trkpt lat="46.5054952540" lon="6.7504510470"><ele></ele><time>2014-7-8T11:59:8Z</time></trkpt>
<trkpt lat="46.5049204230" lon="6.7496590409"><ele></ele><time>2014-7-8T11:59:11Z</time></trkpt>
<trkpt lat="46.5041554067" lon="6.7486178409"><ele></ele><time>2014-7-8T11:59:14Z</time></trkpt>
<trkpt lat="46.5040733479" lon="6.7485256400"><ele></ele><time>2014-7-8T11:59:17Z</time></trkpt>
<trkpt lat="46.5039914567" lon="6.7484578304"><ele></ele><time>2014-7-8T11:59:20Z</time></trkpt>
<trkpt lat="46.5036460385" lon="6.7482808046"><ele></ele><time>2014-7-8T11:59:23Z</time></trkpt>
<trkpt lat="46.5033354051" lon="6.7483050283"><ele></ele><time>2014-7-8T11:59:26Z</time></trkpt>
<trkpt lat="46.5032028034" lon="6.7483883444"><ele></ele><time>2014-7-8T11:59:29Z</time></trkpt>
<trkpt lat="46.5025177505" lon="6.7491071764"><ele></ele><time>2014-7-8T11:59:32Z</time></trkpt>
<trkpt lat="46.5017406642" lon="6.7498493940"><ele></ele><time>2014-7-8T11:59:35Z</time></trkpt>
<trkpt lat="46.5013302024" lon="6.7504099756"><ele></ele><time>2014-7-8T11:59:38Z</time></trkpt>
<trkpt lat="46.5006213449" lon="6.7510685418"><ele></ele><time>2014-7-8T11:59:41Z</time></trkpt>
<trkpt lat="46.5005295631" lon="6.7514101043"><ele></ele><time>2014-7-8T11:59:44Z</time></trkpt>
<trkpt lat="46.5005754959" lon="6.7516677640"><ele></ele><time>2014-7-8T11:59:47Z</time></trkpt>
<trkpt lat="46.5006632544" lon="6.7519814987"><ele></ele><time>2014-7-8T11:59:50Z</time></trkpt>
<trkpt lat="46.5005192533" lon="6.7525257356"><ele></ele><time>2014-7-8T11:59:53Z</time></trkpt>
<trkpt lat="46.5002064407" lon="6.7529298272"><ele></ele><time>2014-7-8T11:59:56Z</time></trkpt>
<trkpt lat="46.5000419877" lon="6.7533955257"><ele></ele><time>2014-7-8T11:59:59Z</time></trkpt>
<trkpt lat="46.5000735037" lon="6.7538368329"><ele></ele><time>2014-7-8T12:0:2Z</time></trkpt>
<trkpt lat="46.5005183313" lon="6.7554128822"><ele></ele><time>2014-7-8T12:0:5Z</time></trkpt>
<trkpt lat="46.5006212611" lon="6.7557492480"><ele></ele><time>2014-7-8T12:0:8Z</time></trkpt>
<trkpt lat="46.5004546288" lon="6.7561437003"><ele></ele><time>2014-7-8T12:0:11Z</time></trkpt>
<trkpt lat="46.5003091190" lon="6.7560804170"><ele></ele><time>2014-7-8T12:0:14Z</time></trkpt>
<trkpt lat="46.4999164268" lon="6.7557961866"><ele></ele><time>2014-7-8T12:0:17Z</time></trkpt>
<trkpt lat="46.4994467888" lon="6.7558838613"><ele></ele><time>2014-7-8T12:0:20Z</time></trkpt>
<trkpt lat="46.4995204657" lon="6.7562826723"><ele></ele><time>2014-7-8T12:0:23Z</time></trkpt>
<trkpt lat="46.4999942947" lon="6.7575449869"><ele></ele><time>2014-7-8T12:0:26Z</time></trkpt>
<trkpt lat="46.5002062730" lon="6.7578126211"><ele></ele><time>2014-7-8T12:0:29Z</time></trkpt>
<trkpt lat="46.5004956163" lon="6.7580585461"><ele></ele><time>2014-7-8T12:0:32Z</time></trkpt>
<trkpt lat="46.5005057584" lon="6.7584836762"><ele></ele><time>2014-7-8T12:0:35Z</time></trkpt>
<trkpt lat="46.5002215281" lon="6.7587482929"><ele></ele><time>2014-7-8T12:0:38Z</time></trkpt>
<trkpt lat="46.5000864957" lon="6.7589145899"><ele></ele><time>2014-7-8T12:0:41Z</time></trkpt>
<trkpt lat="46.4996244851" lon="6.7593413964"><ele></ele><time>2014-7-8T12:0:44Z</time></trkpt>
<trkpt lat="46.4995611180" lon="6.7594278138"><ele></ele><time>2014-7-8T12:0:47Z</time></trkpt>
<trkpt lat="46.4993838407" lon="6.7596903350"><ele></ele><time>2014-7-8T12:0:50Z</time></trkpt>
<trkpt lat="46.4991374128" lon="6.7599281296"><ele></ele><time>2014-7-8T12:0:53Z</time></trkpt>
<trkpt lat="46.4988697786" lon="6.7600990366"><ele></ele><time>2014-7-8T12:0:56Z</time></trkpt>
<trkpt lat="46.4985878114" lon="6.7601505015"><ele></ele><time>2014-7-8T12:0:59Z</time></trkpt>
<trkpt lat="46.4979194384" lon="6.7605466302"><ele></ele><time>2014-7-8T12:1:2Z</time></trkpt>
<trkpt lat="46.4973197132" lon="6.7615062743"><ele></ele><time>2014-7-8T12:1:5Z</time></trkpt>
<trkpt lat="46.4969103411" lon="6.7614280712"><ele></ele><time>2014-7-8T12:1:8Z</time></trkpt>
<trkpt lat="46.4968351554" lon="6.7613038514"><ele></ele><time>2014-7-8T12:1:11Z</time></trkpt>
<trkpt lat="46.4965200797" lon="6.7608145159"><ele></ele><time>2014-7-8T12:1:14Z</time></trkpt>
<trkpt lat="46.4960985538" lon="6.7605352309"><ele></ele><time>2014-7-8T12:1:17Z</time></trkpt>
<trkpt lat="46.4947076607" lon="6.7601501662"><ele></ele><time>2014-7-8T12:1:20Z</time></trkpt>
<trkpt lat="46.4938800316" lon="6.7601318099"><ele></ele><time>2014-7-8T12:1:23Z</time></trkpt>
<trkpt lat="46.4932995010" lon="6.7600427940"><ele></ele><time>2014-7-8T12:1:26Z</time></trkpt>
<trkpt lat="46.4930658136" lon="6.7602107674"><ele></ele><time>2014-7-8T12:1:29Z</time></trkpt>
<trkpt lat="46.4924973529" lon="6.7605271004"><ele></ele><time>2014-7-8T12:1:32Z</time></trkpt>
<trkpt lat="46.4920358453" lon="6.7605126835"><ele></ele><time>2014-7-8T12:1:35Z</time></trkpt>
<trkpt lat="46.4918268006" lon="6.7603895534"><ele></ele><time>2014-7-8T12:1:38Z</time></trkpt>
<trkpt lat="46.4917145669" lon="6.7601649184"><ele></ele><time>2014-7-8T12:1:41Z</time></trkpt>
<trkpt lat="46.4914507046" lon="6.7598498426"><ele></ele><time>2014-7-8T12:1:44Z</time></trkpt>
<trkpt lat="46.4908752870" lon="6.7591251433"><ele></ele><time>2014-7-8T12:1:47Z</time></trkpt>
<trkpt lat="46.4905064832" lon="6.7586577684"><ele></ele><time>2014-7-8T12:1:50Z</time></trkpt>
<trkpt lat="46.4904595446" lon="6.7585484684"><ele></ele><time>2014-7-8T12:1:53Z</time></trkpt>
<trkpt lat="46.4900393598" lon="6.7575452384"><ele></ele><time>2014-7-8T12:1:56Z</time></trkpt>
<trkpt lat="46.4900194108" lon="6.7574728187"><ele></ele><time>2014-7-8T12:1:59Z</time></trkpt>
<trkpt lat="46.4901653398" lon="6.7569150869"><ele></ele><time>2014-7-8T12:2:2Z</time></trkpt>
<trkpt lat="46.4903535135" lon="6.7567244824"><ele></ele><time>2014-7-8T12:2:5Z</time></trkpt>
<trkpt lat="46.4907915518" lon="6.7559969332"><ele></ele><time>2014-7-8T12:2:8Z</time></trkpt>
<trkpt lat="46.4911673963" lon="6.7553204298"><ele></ele><time>2014-7-8T12:2:11Z</time></trkpt>
<trkpt lat="46.4914066996" lon="6.7551496066"><ele></ele><time>2014-7-8T12:2:14Z</time></trkpt>
<trkpt lat="46.4922525175" lon="6.7550323438"><ele></ele><time>2014-7-8T12:2:17Z</time></trkpt>
<trkpt lat="46.4925772324" lon="6.7548374645"><ele></ele><time>2014-7-8T12:2:20Z</time></trkpt>
<trkpt lat="46.4929505624" lon="6.7547431681"><ele></ele><time>2014-7-8T12:2:23Z</time></trkpt>
<trkpt lat="46.4934208710" lon="6.7546256538"><ele></ele><time>2014-7-8T12:2:26Z</time></trkpt>
<trkpt lat="46.4936001599" lon="6.7544582672"><ele></ele><time>2014-7-8T12:2:29Z</time></trkpt>
<trkpt lat="46.4937269781" lon="6.7537777405"><ele></ele><time>2014-7-8T12:2:32Z</time></trkpt>
<trkpt lat="46.4935312606" lon="6.7531998083"><ele></ele><time>2014-7-8T12:2:35Z</time></trkpt>
<trkpt lat="46.4935179334" lon="6.7527329363"><ele></ele><time>2014-7-8T12:2:38Z</time></trkpt>
<trkpt lat="46.4938139822" lon="6.7517474759"><ele></ele><time>2014-7-8T12:2:41Z</time></trkpt>
<trkpt lat="46.4942987915" lon="6.7508884985"><ele></ele><time>2014-7-8T12:2:44Z</time></trkpt>
<trkpt lat="46.4943881426" lon="6.7507600877"><ele></ele><time>2014-7-8T12:2:47Z</time></trkpt>
<trkpt lat="46.4952435158" lon="6.7497758009"><ele></ele><time>2014-7-8T12:2:50Z</time></trkpt>
<trkpt lat="46.4961181674" lon="6.7484615184"><ele></ele><time>2014-7-8T12:2:53Z</time></trkpt>
<trkpt lat="46.4964744821" lon="6.7476816662"><ele></ele><time>2014-7-8T12:2:56Z</time></trkpt>
<trkpt lat="46.4966852032" lon="6.7470538616"><ele></ele><time>2014-7-8T12:2:59Z</time></trkpt>
<trkpt lat="46.4968981035" lon="6.7467903346"><ele></ele><time>2014-7-8T12:3:2Z</time></trkpt>
<trkpt lat="46.4972190466" lon="6.7466743290"><ele></ele><time>2014-7-8T12:3:5Z</time></trkpt>
<trkpt lat="46.4975106530" lon="6.7461986560"><ele></ele><time>2014-7-8T12:3:8Z</time></trkpt>
<trkpt lat="46.4973952342" lon="6.7459062953"><ele></ele><time>2014-7-8T12:3:11Z</time></trkpt>
<trkpt lat="46.4971503150" lon="6.7453479767"><ele></ele><time>2014-7-8T12:3:14Z</time></trkpt>
<trkpt lat="46.4973807335" lon="6.7446025740"><ele></ele><time>2014-7-8T12:3:17Z</time></trkpt>
<trkpt lat="46.4973783866" lon="6.7437444348"><ele></ele><time>2014-7-8T12:3:20Z</time></trkpt>
<trkpt lat="46.4974562544" lon="6.7429962661"><ele></ele><time>2014-7-8T12:3:23Z</time></trkpt>
<trkpt lat="46.4977751859" lon="6.7422968801"><ele></ele><time>2014-7-8T12:3:26Z</time></trkpt>
<trkpt lat="46.4981549699" lon="6.7415272538"><ele></ele><time>2014-7-8T12:3:29Z</time></trkpt>
<trkpt lat="46.4982121345" lon="6.7410728708"><ele></ele><time>2014-7-8T12:3:32Z</time></trkpt>
<trkpt lat="46.4982123021" lon="6.7408804223"><ele></ele><time>2014-7-8T12:3:35Z</time></trkpt>
<trkpt lat="46.4982792735" lon="6.7406271212"><ele></ele><time>2014-7-8T12:3:38Z</time></trkpt>
<trkpt lat="46.4983941056" lon="6.7403597385"><ele></ele><time>2014-7-8T12:3:41Z</time></trkpt>
<trkpt lat="46.4985205885" lon="6.7398081254"><ele></ele><time>2014-7-8T12:3:44Z</time></trkpt>
<trkpt lat="46.4987772424" lon="6.7393499706"><ele></ele><time>2014-7-8T12:3:47Z</time></trkpt>
<trkpt lat="46.4990253467" lon="6.7391419318"><ele></ele><time>2014-7-8T12:3:50Z</time></trkpt>
<trkpt lat="46.4992860239" lon="6.7385380156"><ele></ele><time>2014-7-8T12:3:53Z</time></trkpt>
<trkpt lat="46.4995926339" lon="6.7369488068"><ele></ele><time>2014-7-8T12:3:56Z</time></trkpt>
<trkpt lat="46.4998337813" lon="6.7364938371"><ele></ele><time>2014-7-8T12:3:59Z</time></trkpt>
<trkpt lat="46.5002406389" lon="6.7361314036"><ele></ele><time>2014-7-8T12:4:2Z</time></trkpt>
<trkpt lat="46.5004970413" lon="6.7360008135"><ele></ele><time>2014-7-8T12:4:5Z</time></trkpt>
<trkpt lat="46.5007599816" lon="6.7360536195"><ele></ele><time>2014-7-8T12:4:8Z</time></trkpt>
<trkpt lat="46.5010409430" lon="6.7360518593"><ele></ele><time>2014-7-8T12:4:11Z</time></trkpt>
<trkpt lat="46.5013006981" lon="6.7357781064"><ele></ele><time>2014-7-8T12:4:14Z</time></trkpt>
<trkpt lat="46.5015268419" lon="6.7354238871"><ele></ele><time>2014-7-8T12:4:17Z</time></trkpt>
<trkpt lat="46.5017072205" lon="6.7350077257"><ele></ele><time>2014-7-8T12:4:20Z</time></trkpt>
<trkpt lat="46.5017130878" lon="6.7344470602"><ele></ele><time>2014-7-8T12:4:23Z</time></trkpt>
<trkpt lat="46.5016291849" lon="6.7338655237"><ele></ele><time>2014-7-8T12:4:26Z</time></trkpt>
<trkpt lat="46.5015344694" lon="6.7332942970"><ele></ele><time>2014-7-8T12:4:29Z</time></trkpt>
<trkpt lat="46.5013483074" lon="6.7328016087"><ele></ele><time>2014-7-8T12:4:32Z</time></trkpt>
<trkpt lat="46.5009222552" lon="6.7322609760"><ele></ele><time>2014-7-8T12:4:35Z</time></trkpt>
<trkpt lat="46.5004472528" lon="6.7315972131"><ele></ele><time>2014-7-8T12:4:38Z</time></trkpt>
<trkpt lat="46.5003656130" lon="6.7313402239"><ele></ele><time>2014-7-8T12:4:41Z</time></trkpt>
<trkpt lat="46.5004440676" lon="6.7307219747"><ele></ele><time>2014-7-8T12:4:44Z</time></trkpt>
<trkpt lat="46.5003483463" lon="6.7302053981"><ele></ele><time>2014-7-8T12:4:47Z</time></trkpt>
<trkpt lat="46.4999043569" lon="6.7299315613"><ele></ele><time>2014-7-8T12:4:50Z</time></trkpt>
<trkpt lat="46.4996729326" lon="6.7297996301"><ele></ele><time>2014-7-8T12:4:53Z</time></trkpt>
<trkpt lat="46.4996214677" lon="6.7297674436"><ele></ele><time>2014-7-8T12:4:56Z</time></trkpt>
<trkpt lat="46.4994172007" lon="6.7295566387"><ele></ele><time>2014-7-8T12:4:59Z</time></trkpt>
<trkpt lat="46.4992332179" lon="6.7291142419"><ele></ele><time>2014-7-8T12:5:2Z</time></trkpt>
<trkpt lat="46.4992798213" lon="6.7285779677"><ele></ele><time>2014-7-8T12:5:5Z</time></trkpt>
<trkpt lat="46.4997404069" lon="6.7283095792"><ele></ele><time>2014-7-8T12:5:8Z</time></trkpt>
<trkpt lat="46.5000929497" lon="6.7280675098"><ele></ele><time>2014-7-8T12:5:11Z</time></trkpt>
<trkpt lat="46.5003931895" lon="6.7273116298"><ele></ele><time>2014-7-8T12:5:14Z</time></trkpt>
<trkpt lat="46.5002721548" lon="6.7266675644"><ele></ele><time>2014-7-8T12:5:17Z</time></trkpt>
<trkpt lat="46.4996078052" lon="6.7249321751"><ele></ele><time>2014-7-8T12:5:20Z</time></trkpt>
<trkpt lat="46.4995675720" lon="6.7248225398"><ele></ele><time>2014-7-8T12:5:23Z</time></trkpt>
<trkpt lat="46.4994200505" lon="6.7236427870"><ele></ele><time>2014-7-8T12:5:26Z</time></trkpt>
<trkpt lat="46.4993616287" lon="6.7229588237"><ele></ele><time>2014-7-8T12:5:29Z</time></trkpt>
<trkpt lat="46.4993416797" lon="6.7220592778"><ele></ele><time>2014-7-8T12:5:32Z</time></trkpt>
<trkpt lat="46.4995070547" lon="6.7209134717"><ele></ele><time>2014-7-8T12:5:35Z</time></trkpt>
<trkpt lat="46.4996816497" lon="6.7207888328"><ele></ele><time>2014-7-8T12:5:38Z</time></trkpt>
<trkpt lat="46.4997085556" lon="6.7208490986"><ele></ele><time>2014-7-8T12:5:41Z</time></trkpt>
<trkpt lat="46.4998466894" lon="6.7211265396"><ele></ele><time>2014-7-8T12:5:44Z</time></trkpt>
<trkpt lat="46.4998981543" lon="6.7214247677"><ele></ele><time>2014-7-8T12:5:47Z</time></trkpt>
<trkpt lat="46.4998891018" lon="6.7216061521"><ele></ele><time>2014-7-8T12:5:50Z</time></trkpt>
<trkpt lat="46.4998621959" lon="6.7219053023"><ele></ele><time>2014-7-8T12:5:53Z</time></trkpt>
<trkpt lat="46.4998478629" lon="6.7220450286"><ele></ele><time>2014-7-8T12:5:56Z</time></trkpt>
<trkpt lat="46.4998036064" lon="6.7224974837"><ele></ele><time>2014-7-8T12:5:59Z</time></trkpt>
<trkpt lat="46.4998183586" lon="6.7229858134"><ele></ele><time>2014-7-8T12:6:2Z</time></trkpt>
<trkpt lat="46.4998594299" lon="6.7230801098"><ele></ele><time>2014-7-8T12:6:5Z</time></trkpt>
<trkpt lat="46.4998989925" lon="6.7231656052"><ele></ele><time>2014-7-8T12:6:8Z</time></trkpt>
<trkpt lat="46.4999140799" lon="6.7231943551"><ele></ele><time>2014-7-8T12:6:11Z</time></trkpt>
<trkpt lat="46.4999341127" lon="6.7233044934"><ele></ele><time>2014-7-8T12:6:14Z</time></trkpt>
<trkpt lat="46.4999709092" lon="6.7234560382"><ele></ele><time>2014-7-8T12:6:17Z</time></trkpt>
<trkpt lat="46.5000937879" lon="6.7238788214"><ele></ele><time>2014-7-8T12:6:20Z</time></trkpt>
<trkpt lat="46.5002194326" lon="6.7242933065"><ele></ele><time>2014-7-8T12:6:23Z</time></trkpt>
<trkpt lat="46.5003848914" lon="6.7247366253"><ele></ele><time>2014-7-8T12:6:26Z</time></trkpt>
<trkpt lat="46.5007365122" lon="6.7255020607"><ele></ele><time>2014-7-8T12:6:29Z</time></trkpt>
<trkpt lat="46.5010026377" lon="6.7260674201"><ele></ele><time>2014-7-8T12:6:32Z</time></trkpt>
<trkpt lat="46.5011332277" lon="6.7265311070"><ele></ele><time>2014-7-8T12:6:35Z</time></trkpt>
<trkpt lat="46.5011977684" lon="6.7268480267"><ele></ele><time>2014-7-8T12:6:38Z</time></trkpt>
<trkpt lat="46.5012152866" lon="6.7270477675"><ele></ele><time>2014-7-8T12:6:41Z</time></trkpt>
<trkpt lat="46.5012550168" lon="6.7272733245"><ele></ele><time>2014-7-8T12:6:44Z</time></trkpt>
<trkpt lat="46.5013014525" lon="6.7274976242"><ele></ele><time>2014-7-8T12:6:47Z</time></trkpt>
<trkpt lat="46.5013224073" lon="6.7276040744"><ele></ele><time>2014-7-8T12:6:50Z</time></trkpt>
<trkpt lat="46.5015385766" lon="6.7280059028"><ele></ele><time>2014-7-8T12:6:53Z</time></trkpt>
<trkpt lat="46.5019397344" lon="6.7282760516"><ele></ele><time>2014-7-8T12:6:56Z</time></trkpt>
<trkpt lat="46.5023416467" lon="6.7286557518"><ele></ele><time>2014-7-8T12:6:59Z</time></trkpt>
<trkpt lat="46.5027210955" lon="6.7291365378"><ele></ele><time>2014-7-8T12:7:2Z</time></trkpt>
<trkpt lat="46.5031194873" lon="6.7296200059"><ele></ele><time>2014-7-8T12:7:5Z</time></trkpt>
<trkpt lat="46.5032709483" lon="6.7301321402"><ele></ele><time>2014-7-8T12:7:8Z</time></trkpt>
<trkpt lat="46.5038288478" lon="6.7310490366"><ele></ele><time>2014-7-8T12:7:11Z</time></trkpt>
<trkpt lat="46.5041906107" lon="6.7317117099"><ele></ele><time>2014-7-8T12:7:14Z</time></trkpt>
<trkpt lat="46.5042009205" lon="6.7317291442"><ele></ele><time>2014-7-8T12:7:17Z</time></trkpt>
<trkpt lat="46.5041876771" lon="6.7317074351"><ele></ele><time>2014-7-8T12:7:20Z</time></trkpt>
</trkseg></trk></gpx>